createdAt,value
2022-09-15T00:01:38.774Z,96711.41
2022-09-15T00:04:05.811Z,96699.69
2022-09-15T00:06:32.746Z,96712.97
2022-09-15T00:08:59.446Z,96707.09
2022-09-15T00:11:26.725Z,96700.50
2022-09-15T00:13:53.953Z,96702.88
2022-09-15T00:16:22.015Z,96706.84
2022-09-15T00:18:50.256Z,96702.28
2022-09-15T00:21:18.393Z,96698.66
2022-09-15T00:23:45.133Z,96698.31
2022-09-15T00:26:14.431Z,96700.25
2022-09-15T00:28:41.570Z,96688.00
2022-09-15T00:31:09.136Z,96691.41
2022-09-15T00:33:35.956Z,96698.34
2022-09-15T00:36:05.196Z,96697.13
2022-09-15T00:38:32.132Z,96693.59
2022-09-15T00:40:59.635Z,96692.34
2022-09-15T00:43:43.471Z,96690.44
2022-09-15T00:46:10.175Z,96697.03
2022-09-15T00:48:38.731Z,96698.63
2022-09-15T00:51:07.845Z,96683.84
2022-09-15T00:53:35.213Z,96690.75
2022-09-15T00:56:02.539Z,96691.38
2022-09-15T00:58:30.794Z,96692.50
2022-09-15T01:00:58.963Z,96690.13
2022-09-15T01:03:26.556Z,96689.66
2022-09-15T01:05:55.092Z,96688.06
2022-09-15T01:08:26.981Z,96692.75
2022-09-15T01:10:53.552Z,96693.31
2022-09-15T01:13:20.170Z,96693.06
2022-09-15T01:15:53.383Z,96697.28
2022-09-15T01:18:22.248Z,96686.50
2022-09-15T01:21:02.677Z,96701.47
2022-09-15T01:23:47.750Z,96694.44
2022-09-15T01:26:33.750Z,96690.66
2022-09-15T01:29:10.799Z,96689.53
2022-09-15T01:32:00.642Z,96697.69
2022-09-15T01:34:30.141Z,96690.22
2022-09-15T01:37:02.392Z,96692.16
2022-09-15T01:39:34.046Z,96695.22
2022-09-15T01:42:02.429Z,96690.13
2022-09-15T01:44:32.271Z,96687.72
2022-09-15T01:47:01.987Z,96686.84
2022-09-15T01:49:30.435Z,96691.06
2022-09-15T01:51:57.065Z,96694.56
2022-09-15T01:54:26.429Z,96691.41
2022-09-15T01:56:53.030Z,96691.41
2022-09-15T01:59:19.624Z,96694.22
2022-09-15T02:01:50.251Z,96694.22
2022-09-15T02:04:21.724Z,96684.38
2022-09-15T02:06:52.113Z,96690.25
2022-09-15T02:09:22.450Z,96695.25
2022-09-15T02:11:54.262Z,96691.72
2022-09-15T02:14:28.416Z,96686.84
2022-09-15T02:16:55.139Z,96690.44
2022-09-15T02:19:32.972Z,96691.31
2022-09-15T02:22:02.879Z,96690.72
2022-09-15T02:24:32.275Z,96691.41
2022-09-15T02:27:00.771Z,96693.00
2022-09-15T02:29:28.134Z,96692.31
2022-09-15T02:31:56.370Z,96692.66
2022-09-15T02:34:27.156Z,96695.47
2022-09-15T02:36:55.187Z,96692.09
2022-09-15T02:39:26.335Z,96696.63
2022-09-15T02:41:52.940Z,96692.00
2022-09-15T02:44:19.692Z,96695.28
2022-09-15T02:46:46.291Z,96694.94
2022-09-15T02:49:13.279Z,96696.88
2022-09-15T02:51:41.237Z,96695.28
2022-09-15T02:54:08.247Z,96693.28
2022-09-15T02:56:34.846Z,96694.41
2022-09-15T02:59:01.623Z,96700.63
2022-09-15T03:01:31.788Z,96703.13
2022-09-15T03:03:59.176Z,96704.59
2022-09-15T03:06:27.991Z,96704.50
2022-09-15T03:08:56.901Z,96707.91
2022-09-15T03:11:24.295Z,96710.53
2022-09-15T03:13:53.164Z,96712.75
2022-09-15T03:16:20.351Z,96708.00
2022-09-15T03:18:47.006Z,96717.28
2022-09-15T03:21:14.643Z,96716.69
2022-09-15T03:23:41.832Z,96718.06
2022-09-15T03:26:10.422Z,96719.41
2022-09-15T03:28:37.366Z,96714.44
2022-09-15T03:31:04.295Z,96716.22
2022-09-15T03:33:31.217Z,96718.81
2022-09-15T03:35:57.813Z,96730.41
2022-09-15T03:38:24.855Z,96733.91
2022-09-15T03:41:01.851Z,96730.88
2022-09-15T03:43:30.828Z,96738.44
2022-09-15T03:45:58.231Z,96740.56
2022-09-15T03:48:25.187Z,96740.78
2022-09-15T03:53:37.652Z,96748.13
2022-09-15T03:56:09.026Z,96760.59
2022-09-15T03:58:37.294Z,62402.38
2022-09-15T04:01:04.286Z,62402.38
2022-09-15T04:03:31.701Z,62402.38
2022-09-15T04:05:58.537Z,96765.41
2022-09-15T04:08:25.396Z,96773.13
2022-09-15T04:10:53.096Z,62402.38
2022-09-15T04:13:19.947Z,96773.13
2022-09-15T04:15:48.531Z,62402.38
2022-09-15T04:18:15.371Z,62402.38
2022-09-15T04:20:42.432Z,62402.38
2022-09-15T04:23:09.271Z,62402.38
2022-09-15T04:25:36.142Z,62402.38
2022-09-15T04:28:02.978Z,62402.38
2022-09-15T04:30:29.791Z,62402.38
2022-09-15T04:32:58.078Z,62402.38
2022-09-15T04:35:24.909Z,62402.38
2022-09-15T04:37:53.902Z,62402.38
2022-09-15T04:40:20.770Z,62402.38
2022-09-15T04:42:47.663Z,62402.38
2022-09-15T04:45:14.554Z,62402.38
2022-09-15T04:47:41.382Z,62402.38
2022-09-15T04:50:10.272Z,62402.38
2022-09-15T04:52:37.183Z,62402.38
2022-09-15T04:55:04.569Z,62402.38
2022-09-15T04:57:33.481Z,62402.38
2022-09-15T05:00:00.486Z,62402.38
2022-09-15T05:02:27.367Z,62402.38
2022-09-15T05:04:54.261Z,62402.38
2022-09-15T05:07:22.477Z,62402.38
2022-09-15T05:09:49.422Z,62402.38
2022-09-15T05:12:16.287Z,62402.38
2022-09-15T05:14:43.164Z,62402.38
2022-09-15T05:17:10.786Z,62402.38
2022-09-15T05:19:37.605Z,62402.38
2022-09-15T05:22:04.800Z,96830.50
2022-09-15T05:24:34.212Z,96832.59
2022-09-15T05:27:01.681Z,96839.94
2022-09-15T05:29:28.487Z,96837.09
2022-09-15T05:31:55.442Z,96828.31
2022-09-15T05:34:22.323Z,96833.44
2022-09-15T05:36:49.133Z,96839.84
2022-09-15T05:39:16.044Z,96845.91
2022-09-15T05:41:44.867Z,96844.34
2022-09-15T05:44:11.815Z,96846.25
2022-09-15T05:46:38.743Z,96845.78
2022-09-15T05:49:06.380Z,96853.28
2022-09-15T05:51:33.194Z,96853.44
2022-09-15T05:54:00.392Z,96853.09
2022-09-15T05:56:27.341Z,96855.34
2022-09-15T05:58:55.763Z,96858.38
2022-09-15T06:01:24.858Z,96864.44
2022-09-15T06:03:52.338Z,96870.50
2022-09-15T06:06:19.680Z,96870.50
2022-09-15T06:08:51.876Z,96865.75
2022-09-15T06:11:22.651Z,96877.03
2022-09-15T06:13:50.320Z,96883.44
2022-09-15T06:16:21.360Z,96877.84
2022-09-15T06:18:49.599Z,96877.03
2022-09-15T06:21:18.715Z,96882.94
2022-09-15T06:23:50.077Z,96876.72
2022-09-15T06:26:19.164Z,96878.63
2022-09-15T06:28:49.557Z,96884.03
2022-09-15T06:31:16.900Z,96870.59
2022-09-15T06:33:47.197Z,96874.72
2022-09-15T06:36:15.551Z,62402.38
2022-09-15T06:38:42.771Z,62402.38
2022-09-15T06:41:10.578Z,96874.72
2022-09-15T06:43:37.851Z,96888.78
2022-09-15T06:46:06.215Z,96886.69
2022-09-15T06:48:33.366Z,96886.84
2022-09-15T06:51:02.231Z,96896.03
2022-09-15T06:53:30.512Z,62402.38
2022-09-15T06:56:02.773Z,96899.41
2022-09-15T06:58:29.710Z,96902.72
2022-09-15T07:01:01.136Z,96904.47
2022-09-15T07:03:28.569Z,96905.41
2022-09-15T07:05:55.873Z,96902.22
2022-09-15T07:08:24.451Z,96902.69
2022-09-15T07:10:51.398Z,96905.88
2022-09-15T07:13:18.317Z,96913.22
2022-09-15T07:15:50.543Z,62402.38
2022-09-15T07:18:17.816Z,62402.38
2022-09-15T07:20:44.647Z,62402.38
2022-09-15T07:23:11.693Z,62402.38
2022-09-15T07:25:44.100Z,62402.38
2022-09-15T07:28:11.682Z,62402.38
2022-09-15T07:30:39.315Z,62402.38
2022-09-15T07:33:06.567Z,62402.38
2022-09-15T07:35:33.600Z,62402.38
2022-09-15T07:40:28.413Z,96933.56
2022-09-15T07:42:56.875Z,96937.41
2022-09-15T07:45:24.090Z,96940.78
2022-09-15T07:47:51.234Z,96939.97
2022-09-15T07:50:25.958Z,96948.94
2022-09-15T07:52:58.394Z,96939.69
2022-09-15T07:55:26.275Z,96947.56
2022-09-15T07:58:02.585Z,96949.03
2022-09-15T08:00:30.853Z,96950.16
2022-09-15T08:02:58.302Z,96950.56
2022-09-15T08:05:29.005Z,62402.38
2022-09-15T08:07:56.719Z,62402.38
2022-09-15T08:10:25.338Z,62402.38
2022-09-15T08:12:52.791Z,62402.38
2022-09-15T08:15:21.654Z,62402.38
2022-09-15T08:17:48.695Z,62402.38
2022-09-15T08:20:15.750Z,62402.38
2022-09-15T08:22:43.630Z,62402.38
2022-09-15T08:25:10.891Z,96993.59
2022-09-15T08:27:38.064Z,96988.31
2022-09-15T08:30:06.958Z,96998.06
2022-09-15T08:32:35.284Z,96992.91
2022-09-15T08:35:02.481Z,96994.34
2022-09-15T08:37:29.464Z,62402.38
2022-09-15T08:39:56.398Z,62402.38
2022-09-15T08:42:26.929Z,62402.38
2022-09-15T08:44:57.782Z,62402.38
2022-09-15T08:47:30.042Z,62402.38
2022-09-15T08:50:03.052Z,96994.34
2022-09-15T08:52:35.333Z,97019.38
2022-09-15T08:55:07.218Z,97021.72
2022-09-15T08:57:34.222Z,62402.38
2022-09-15T09:00:01.598Z,97017.09
2022-09-15T09:03:03.742Z,97015.75
2022-09-15T09:05:46.297Z,97012.84
2022-09-15T09:08:39.519Z,62402.38
2022-09-15T09:11:17.547Z,97018.50
2022-09-15T09:14:03.639Z,97012.84
2022-09-15T09:16:50.057Z,97020.03
2022-09-15T09:19:39.044Z,97015.91
2022-09-15T09:22:09.635Z,97018.53
2022-09-15T09:24:41.885Z,97020.84
2022-09-15T09:27:14.216Z,97022.88
2022-09-15T09:29:45.317Z,97019.72
2022-09-15T09:32:21.380Z,62402.38
2022-09-15T09:34:58.920Z,97025.03
2022-09-15T09:37:27.111Z,97023.00
2022-09-15T09:39:53.738Z,97022.34
2022-09-15T09:42:24.766Z,97028.69
2022-09-15T09:44:51.466Z,97017.34
2022-09-15T09:47:27.142Z,97019.38
2022-09-15T09:49:53.796Z,97016.84
2022-09-15T09:52:34.300Z,97016.72
2022-09-15T09:55:01.652Z,97020.69
2022-09-15T09:57:29.682Z,97020.47
2022-09-15T09:59:56.660Z,97010.66
2022-09-15T10:02:25.012Z,97014.31
2022-09-15T10:04:53.018Z,97023.44
2022-09-15T10:07:22.851Z,97015.50
2022-09-15T10:09:53.076Z,97018.69
2022-09-15T10:12:23.751Z,97030.06
2022-09-15T10:14:52.634Z,97024.72
2022-09-15T10:17:22.540Z,97015.38
2022-09-15T10:19:50.935Z,62402.38
2022-09-15T10:22:22.681Z,62402.38
2022-09-15T10:24:50.231Z,62402.38
2022-09-15T10:27:25.563Z,62402.38
2022-09-15T10:29:52.418Z,62402.38
2022-09-15T10:32:25.896Z,62402.38
2022-09-15T10:35:01.275Z,62402.38
2022-09-15T10:37:32.654Z,62402.38
2022-09-15T10:40:06.537Z,62402.38
2022-09-15T10:42:51.094Z,62402.38
2022-09-15T10:45:25.987Z,62402.38
2022-09-15T10:48:31.378Z,62402.38
2022-09-15T10:51:08.738Z,62402.38
2022-09-15T10:53:59.396Z,62402.38
2022-09-15T10:56:31.317Z,62402.38
2022-09-15T10:59:20.757Z,62402.38
2022-09-15T11:02:03.915Z,62402.38
2022-09-15T11:05:08.565Z,62402.38
2022-09-15T11:07:42.075Z,62402.38
2022-09-15T11:10:19.803Z,62402.38
2022-09-15T11:12:59.202Z,62402.38
2022-09-15T11:15:48.190Z,62402.38
2022-09-15T11:18:28.565Z,62402.38
2022-09-15T11:21:09.763Z,62402.38
2022-09-15T11:23:42.506Z,62402.38
2022-09-15T11:26:15.268Z,97029.22
2022-09-15T11:28:45.891Z,62402.38
2022-09-15T11:31:19.467Z,62402.38
2022-09-15T11:33:48.481Z,62402.38
2022-09-15T11:36:19.983Z,62402.38
2022-09-15T11:38:52.933Z,62402.38
2022-09-15T11:41:27.309Z,62402.38
2022-09-15T11:44:04.065Z,62402.38
2022-09-15T11:46:52.121Z,97029.22
2022-09-15T11:49:23.409Z,97034.16
2022-09-15T11:51:56.480Z,97035.38
2022-09-15T11:54:31.484Z,97038.78
2022-09-15T11:57:00.237Z,97040.28
2022-09-15T11:59:33.775Z,97039.94
2022-09-15T12:02:17.076Z,97045.41
2022-09-15T12:04:57.915Z,97047.91
2022-09-15T12:07:31.008Z,97038.56
2022-09-15T12:10:06.143Z,97042.69
2022-09-15T12:12:35.609Z,97045.28
2022-09-15T12:15:02.615Z,97051.66
2022-09-15T12:17:39.259Z,97047.81
2022-09-15T12:20:14.012Z,97040.00
2022-09-15T12:22:45.531Z,97048.44
2022-09-15T12:25:16.873Z,97046.06
2022-09-15T12:27:43.797Z,97036.38
2022-09-15T12:30:38.525Z,97040.88
2022-09-15T12:33:45.847Z,97042.81
2022-09-15T12:36:33.028Z,97050.06
2022-09-15T12:39:02.186Z,97047.34
2022-09-15T12:41:31.668Z,97045.97
2022-09-15T12:44:05.516Z,97054.59
2022-09-15T12:46:33.172Z,97053.28
2022-09-15T12:49:03.280Z,97062.50
2022-09-15T12:51:30.824Z,97057.13
2022-09-15T12:54:03.009Z,97063.88
2022-09-15T12:56:32.008Z,97061.13
2022-09-15T12:59:06.592Z,97064.97
2022-09-15T13:01:47.820Z,97062.78
2022-09-15T13:04:44.380Z,97069.00
2022-09-15T13:07:34.783Z,97064.72
2022-09-15T13:10:27.647Z,97066.34
2022-09-15T13:13:04.335Z,97062.16
2022-09-15T13:15:33.790Z,97067.50
2022-09-15T13:18:06.027Z,97066.69
2022-09-15T13:20:38.324Z,97069.31
2022-09-15T13:23:09.944Z,97061.94
2022-09-15T13:25:40.598Z,97061.78
2022-09-15T13:28:12.551Z,97071.38
2022-09-15T13:30:47.418Z,97062.16
2022-09-15T13:35:02.368Z,97060.94
2022-09-15T13:38:03.794Z,97056.25
2022-09-15T13:39:40.389Z,97065.75
2022-09-15T13:42:49.431Z,97064.06
2022-09-15T13:45:40.195Z,97066.94
2022-09-15T13:48:39.875Z,97057.91
2022-09-15T13:51:15.763Z,97051.28
2022-09-15T13:53:51.678Z,97058.69
2022-09-15T13:56:24.774Z,97060.63
2022-09-15T13:58:56.117Z,97053.44
2022-09-15T14:01:28.194Z,97052.81
2022-09-15T14:03:59.769Z,97048.44
2022-09-15T14:06:34.458Z,97045.59
2022-09-15T14:09:09.422Z,97055.44
2022-09-15T14:11:37.815Z,97054.84
2022-09-15T14:14:10.409Z,97050.53
2022-09-15T14:16:39.589Z,97045.16
2022-09-15T14:19:29.487Z,97043.38
2022-09-15T14:21:58.726Z,97037.41
2022-09-15T14:24:30.069Z,97044.06
2022-09-15T14:27:00.217Z,97037.53
2022-09-15T14:29:27.861Z,97047.19
2022-09-15T14:32:00.860Z,97036.25
2022-09-15T14:34:31.597Z,97039.78
2022-09-15T14:37:02.706Z,97040.50
2022-09-15T14:39:31.299Z,97044.78
2022-09-15T14:42:00.613Z,97049.06
2022-09-15T14:47:21.794Z,97049.38
2022-09-15T14:49:49.290Z,97047.69
2022-09-15T14:52:29.017Z,97045.22
2022-09-15T14:55:01.127Z,97049.09
2022-09-15T14:57:32.145Z,97045.50
2022-09-15T15:00:03.439Z,97047.13
2022-09-15T15:02:41.294Z,97045.66
2022-09-15T15:05:12.861Z,97039.81
2022-09-15T15:07:40.785Z,97052.19
2022-09-15T15:10:20.659Z,97038.75
2022-09-15T15:12:51.974Z,97038.06
2022-09-15T15:15:19.810Z,97039.53
2022-09-15T15:17:49.800Z,97048.91
2022-09-15T15:20:24.175Z,97035.81
2022-09-15T15:23:11.701Z,97040.34
2022-09-15T15:25:41.835Z,97042.88
2022-09-15T15:28:29.296Z,97043.16
2022-09-15T15:31:14.777Z,97043.16
2022-09-15T15:33:49.558Z,97047.69
2022-09-15T15:36:21.690Z,97052.94
2022-09-15T15:38:52.469Z,97052.34
2022-09-15T15:41:23.555Z,97049.25
2022-09-15T15:43:58.116Z,97050.72
2022-09-15T15:46:47.568Z,97054.78
2022-09-15T15:49:16.661Z,97053.03
2022-09-15T15:51:44.768Z,97054.44
2022-09-15T15:54:29.031Z,97060.34
2022-09-15T15:57:20.206Z,97064.19
2022-09-15T15:59:47.265Z,97061.19
2022-09-15T16:02:14.603Z,97062.31
2022-09-15T16:04:41.541Z,97060.69
2022-09-15T16:07:16.781Z,97062.00
2022-09-15T16:09:44.270Z,97060.06
2022-09-15T16:12:12.642Z,97062.66
2022-09-15T16:14:39.715Z,97062.59
2022-09-15T16:17:06.735Z,62402.38
2022-09-15T16:19:33.830Z,62402.38
2022-09-15T16:22:02.827Z,62402.38
2022-09-15T16:24:29.895Z,97068.63
2022-09-15T16:26:56.985Z,97070.31
2022-09-15T16:29:29.318Z,97063.94
2022-09-15T16:31:56.558Z,97064.84
2022-09-15T16:34:24.912Z,97058.38
2022-09-15T16:36:51.787Z,97061.09
2022-09-15T16:39:18.867Z,97062.63
2022-09-15T16:41:45.879Z,97068.91
2022-09-15T16:44:18.975Z,97067.97
2022-09-15T16:46:47.292Z,97075.03
2022-09-15T16:49:14.590Z,97080.56
2022-09-15T16:51:41.551Z,97075.34
2022-09-15T16:54:14.959Z,62402.38
2022-09-15T16:56:42.005Z,97071.53
2022-09-15T16:59:08.883Z,97073.47
2022-09-15T17:01:36.126Z,97072.53
2022-09-15T17:04:16.794Z,97077.66
2022-09-15T17:06:43.818Z,97079.47
2022-09-15T17:09:10.734Z,97077.63
2022-09-15T17:11:38.094Z,97082.28
2022-09-15T17:14:05.349Z,97080.22
2022-09-15T17:16:33.425Z,97082.47
2022-09-15T17:19:00.385Z,97076.88
2022-09-15T17:21:29.771Z,97076.63
2022-09-15T17:23:56.852Z,97077.78
2022-09-15T17:26:30.464Z,97086.09
2022-09-15T17:28:58.568Z,97078.91
2022-09-15T17:31:26.151Z,97086.41
2022-09-15T17:33:53.352Z,97092.19
2022-09-15T17:36:20.480Z,97095.13
2022-09-15T17:41:33.434Z,97094.59
2022-09-15T17:44:00.303Z,97103.56
2022-09-15T17:46:31.097Z,97103.09
2022-09-15T17:48:58.130Z,97103.75
2022-09-15T17:51:25.260Z,97109.84
2022-09-15T17:53:54.977Z,97110.06
2022-09-15T17:56:21.863Z,97121.00
2022-09-15T17:58:48.735Z,97120.19
2022-09-15T18:01:15.976Z,97120.44
2022-09-15T18:03:44.421Z,97124.13
2022-09-15T18:06:11.467Z,97135.53
2022-09-15T18:08:38.429Z,62402.38
2022-09-15T18:11:07.117Z,62402.38
2022-09-15T18:13:34.651Z,62402.38
2022-09-15T18:16:04.832Z,62402.38
2022-09-15T18:18:32.621Z,97137.56
2022-09-15T18:20:59.956Z,97141.25
2022-09-15T18:23:30.891Z,97139.41
2022-09-15T18:25:58.649Z,97139.41
2022-09-15T18:28:27.061Z,97141.63
2022-09-15T18:30:54.030Z,62402.38
2022-09-15T18:33:23.247Z,97142.56
2022-09-15T18:35:52.236Z,97147.38
2022-09-15T18:38:19.634Z,97147.03
2022-09-15T18:40:49.145Z,97146.25
2022-09-15T18:43:16.606Z,97147.56
2022-09-15T18:45:45.546Z,97149.78
2022-09-15T18:48:13.961Z,97144.84
2022-09-15T18:50:42.076Z,97147.88
2022-09-15T18:53:09.546Z,97158.59
2022-09-15T18:55:37.027Z,97159.72
2022-09-15T18:58:04.114Z,97162.13
2022-09-15T19:00:31.778Z,97152.06
2022-09-15T19:03:01.986Z,97157.34
2022-09-15T19:05:30.126Z,97159.94
2022-09-15T19:07:57.607Z,97171.59
2022-09-15T19:10:26.654Z,97165.06
2022-09-15T19:12:54.578Z,97171.16
2022-09-15T19:15:24.785Z,97172.09
2022-09-15T19:17:51.940Z,97176.91
2022-09-15T19:20:20.328Z,97175.94
2022-09-15T19:22:47.661Z,97174.84
2022-09-15T19:25:14.605Z,97180.91
2022-09-15T19:27:41.986Z,97179.47
2022-09-15T19:30:10.378Z,97166.69
2022-09-15T19:32:37.835Z,97164.59
2022-09-15T19:35:05.399Z,97174.19
2022-09-15T19:37:37.497Z,97170.03
2022-09-15T19:40:08.415Z,97167.78
2022-09-15T19:42:35.437Z,97169.53
2022-09-15T19:45:02.799Z,97167.00
2022-09-15T19:47:29.841Z,97166.84
2022-09-15T19:49:56.815Z,97167.00
2022-09-15T19:52:23.925Z,97174.31
2022-09-15T19:54:52.197Z,97163.16
2022-09-15T19:57:19.177Z,97169.06
2022-09-15T19:59:46.516Z,62402.38
2022-09-15T20:02:13.597Z,62402.38
2022-09-15T20:04:42.089Z,62402.38
2022-09-15T20:07:09.018Z,62402.38
2022-09-15T20:09:36.856Z,62402.38
2022-09-15T20:12:05.825Z,62402.38
2022-09-15T20:14:32.721Z,62402.38
2022-09-15T20:17:01.646Z,62402.38
2022-09-15T20:19:29.062Z,62402.38
2022-09-15T20:21:58.490Z,62402.38
2022-09-15T20:24:25.615Z,62402.38
2022-09-15T20:26:53.018Z,62402.38
2022-09-15T20:29:21.589Z,62402.38
2022-09-15T20:31:48.567Z,62402.38
2022-09-15T20:34:15.730Z,62402.38
2022-09-15T20:36:43.688Z,62402.38
2022-09-15T20:39:15.487Z,62402.38
2022-09-15T20:41:46.258Z,62402.38
2022-09-15T20:44:13.629Z,62402.38
2022-09-15T20:46:42.467Z,62402.38
2022-09-15T20:49:11.269Z,62402.38
2022-09-15T20:51:38.287Z,62402.38
2022-09-15T20:54:05.641Z,62402.38
2022-09-15T20:56:35.073Z,62402.38
2022-09-15T20:59:05.456Z,97181.31
2022-09-15T21:01:34.563Z,97183.09
2022-09-15T21:04:03.364Z,97178.59
2022-09-15T21:06:31.639Z,97188.03
2022-09-15T21:08:58.770Z,97183.88
2022-09-15T21:11:27.668Z,97188.34
2022-09-15T21:13:55.679Z,97188.69
2022-09-15T21:16:24.879Z,97187.06
2022-09-15T21:18:52.066Z,97185.19
2022-09-15T21:21:21.971Z,62402.38
2022-09-15T21:23:51.485Z,62402.38
2022-09-15T21:26:20.510Z,62402.38
2022-09-15T21:28:47.593Z,62402.38
2022-09-15T21:31:16.566Z,97185.19
2022-09-15T21:33:44.654Z,97199.19
2022-09-15T21:36:13.234Z,97207.63
2022-09-15T21:38:43.872Z,97205.25
2022-09-15T21:41:13.003Z,97212.09
2022-09-15T21:43:42.337Z,97209.41
2022-09-15T21:46:13.562Z,97209.41
2022-09-15T21:48:40.962Z,97213.06
2022-09-15T21:51:10.675Z,97220.41
2022-09-15T21:53:37.886Z,97222.31
2022-09-15T21:56:08.631Z,97226.00
2022-09-15T21:58:42.285Z,97232.69
2022-09-15T22:01:12.049Z,97222.78
2022-09-15T22:03:42.239Z,97225.66
2022-09-15T22:06:10.471Z,97222.13
2022-09-15T22:08:38.138Z,97224.22
2022-09-15T22:11:07.595Z,97218.94
2022-09-15T22:13:36.738Z,97226.78
2022-09-15T22:16:05.472Z,97220.69
2022-09-15T22:18:33.003Z,97232.03
2022-09-15T22:21:05.094Z,97225.31
2022-09-15T22:23:32.197Z,97221.16
2022-09-15T22:26:01.785Z,97226.75
2022-09-15T22:28:30.178Z,97223.38
2022-09-15T22:30:58.618Z,97229.75
2022-09-15T22:33:26.005Z,97224.63
2022-09-15T22:35:52.951Z,97225.91
2022-09-15T22:38:20.596Z,97223.19
2022-09-15T22:40:47.571Z,97231.00
2022-09-15T22:43:14.545Z,97224.97
2022-09-15T22:45:42.898Z,97230.03
2022-09-15T22:48:09.761Z,97225.06
2022-09-15T22:50:36.761Z,62402.38
2022-09-15T22:53:03.806Z,62402.38
2022-09-15T22:55:31.062Z,97230.13
2022-09-15T22:57:58.700Z,97219.91
2022-09-15T23:00:25.925Z,97233.94
2022-09-15T23:02:54.180Z,97234.75
2022-09-15T23:05:21.021Z,97226.00
2022-09-15T23:07:47.857Z,97230.78
2022-09-15T23:10:14.951Z,97229.16
2022-09-15T23:12:41.866Z,97235.38
2022-09-15T23:15:09.448Z,97230.41
2022-09-15T23:17:36.264Z,97232.94
2022-09-15T23:22:32.421Z,97235.84
2022-09-15T23:24:59.216Z,97229.13
2022-09-15T23:27:26.097Z,62402.38
2022-09-15T23:29:52.967Z,62402.38
2022-09-15T23:32:19.834Z,97232.44
2022-09-15T23:34:46.679Z,97238.31
2022-09-15T23:37:15.020Z,97236.72
2022-09-15T23:39:41.998Z,97233.38
2022-09-15T23:42:08.839Z,97231.13
2022-09-15T23:44:35.711Z,97234.31
2022-09-15T23:47:02.688Z,97228.50
2022-09-15T23:49:29.636Z,97219.88
2022-09-15T23:51:56.667Z,97231.34
2022-09-15T23:54:24.947Z,97224.13
2022-09-15T23:56:51.787Z,97228.44
2022-09-15T23:59:18.826Z,97223.34
